aviador You're here:

KEKY Decoded Metar

in
Report Time2018-07-19 18:56:00
UTC Time2018-07-19 19:10:08
Flight Rules vfr VFR
Wind330° at 06 kt
W.Decomp.*RWY 05: 1.0 kt HW 5.9 kt LCW
W.Rank330° ranks 17
Current wind is above 330° avg. (5.9)
Visibility9999 m
Phenomena:N/A
Clouds:Scattered 015 Hf
Expected CloudBase > 1,200 ft AGL from Temp-Dew spread
CeilingNone
Temp27°C
Dew Point24°C (84% RH)
Heat Index30.1°C
QNH1015 hPa
Raw Report
METAR KEKY 191856Z AUTO 33006KT 10SM SCT015 27/24 A2996 RMK AO2 SLP152
T02720239=

Extra information for KEKY:More info

Social comments